Time;durP1;ratioP1;P1;durP2;ratioP2;P2;SDS_P1;SDS_P2;PMS_P1;PMS_P2;Temp;Humidity;BMP_temperature;BMP_pressure;BME280_temperature;BME280_humidity;BME280_pressure;Samples;Min_cycle;Max_cycle;Signal;HPM_P1;HPM_P2
2023/07/10 00:00:18;;;;;;;;;;;19.40;99.90;;;;;;5105699;28;19904;-81
2023/07/10 00:02:44;;;;;;;;;;;19.50;99.90;;;;;;5099847;28;19958;-81
2023/07/10 00:05:12;;;;;;;;;;;19.60;99.90;;;;;;5103437;28;20285;-81
2023/07/10 00:07:37;;;;;;;;;;;19.50;99.90;;;;;;5105442;28;19904;-81
2023/07/10 00:10:03;;;;;;;;;;;19.50;99.90;;;;;;5084750;28;20262;-81
2023/07/10 00:12:28;;;;;;;;;;;19.50;99.90;;;;;;5096627;28;20455;-81
2023/07/10 00:14:54;;;;;;;;;;;19.40;99.90;;;;;;5123909;28;20273;-80
2023/07/10 00:17:19;;;;;;;;;;;19.30;99.90;;;;;;5123761;28;20372;-82
2023/07/10 00:19:45;;;;;;;;;;;19.40;99.90;;;;;;5105286;28;19907;-81
2023/07/10 00:22:12;;;;;;;6.28;3.80;;;19.30;99.90;;;;;;5123573;28;19951;-81
2023/07/10 00:24:37;;;;;;;5.93;3.80;;;19.40;99.90;;;;;;5104802;28;20024;-80
2023/07/10 00:27:10;;;;;;;5.95;3.60;;;19.40;99.90;;;;;;5104058;28;20491;-81
2023/07/10 00:29:36;;;;;;;5.43;3.40;;;19.40;99.90;;;;;;5105038;28;20015;-81
2023/07/10 00:32:08;;;;;;;4.60;3.33;;;19.30;99.90;;;;;;5104763;28;20460;-80
2023/07/10 00:34:34;;;;;;;7.07;3.55;;;19.30;99.90;;;;;;5122982;28;20020;-82
2023/07/10 00:37:00;;;;;;;5.68;3.92;;;19.30;99.90;;;;;;5104848;28;20024;-81
2023/07/10 00:39:28;;;;;;;6.68;4.18;;;19.30;99.90;;;;;;5119448;28;20385;-81
2023/07/10 00:42:00;;;;;;;7.13;4.30;;;19.20;99.90;;;;;;5118972;28;20038;-81
2023/07/10 00:44:35;;;;;;;7.10;4.13;;;19.00;99.90;;;;;;5118402;28;20369;-81
2023/07/10 00:47:12;;;;;;;7.32;4.00;;;18.90;99.90;;;;;;5119593;28;20027;-81
2023/07/10 00:49:58;;;;;;;7.40;4.22;;;18.80;99.90;;;;;;5119559;28;20026;-82
2023/07/10 00:52:47;;;;;;;5.78;3.70;;;18.80;99.90;;;;;;5119917;28;20016;-81
2023/07/10 00:55:22;;;;;;;5.93;3.70;;;18.80;99.90;;;;;;5119415;28;20016;-80
2023/07/10 00:57:53;;;;;;;6.63;3.65;;;18.80;99.90;;;;;;5119215;28;20090;-82
2023/07/10 01:00:22;;;;;;;8.18;3.50;;;18.80;99.90;;;;;;5101114;28;20534;-80
2023/07/10 01:02:49;;;;;;;5.57;3.55;;;18.80;99.90;;;;;;5119378;28;20027;-81
2023/07/10 01:05:17;;;;;;;5.80;3.58;;;18.80;99.90;;;;;;5100393;28;20028;-81
2023/07/10 01:07:56;;;;;;;7.00;4.20;;;18.80;99.90;;;;;;5103328;28;20135;-81
2023/07/10 01:10:22;;;;;;;6.90;4.50;;;18.80;99.90;;;;;;5098136;28;20027;-80
2023/07/10 01:12:48;;;;;;;5.75;3.53;;;18.60;99.90;;;;;;5113492;28;20466;-81
2023/07/10 01:15:16;;;;;;;5.47;3.95;;;18.50;99.90;;;;;;5077895;28;20028;-81
2023/07/10 01:17:42;;;;;;;6.03;4.00;;;18.50;99.90;;;;;;5104191;28;20023;-82
2023/07/10 01:20:20;;;;;;;7.05;4.03;;;18.40;99.90;;;;;;5120486;28;20079;-81
2023/07/10 01:22:46;;;;;;;6.13;3.92;;;18.30;99.90;;;;;;5104634;28;20100;-81
2023/07/10 01:25:12;;;;;;;6.13;3.95;;;18.10;99.90;;;;;;5091570;28;20493;-81
2023/07/10 01:27:37;;;;;;;6.13;3.85;;;18.00;99.90;;;;;;5098973;28;20027;-80
2023/07/10 01:30:06;;;;;;;5.85;3.50;;;18.00;99.90;;;;;;5099797;28;20107;-80
2023/07/10 01:32:32;;;;;;;5.53;4.15;;;18.00;99.90;;;;;;5097994;28;20032;-80
2023/07/10 01:35:04;;;;;;;5.50;3.65;;;18.00;99.90;;;;;;5087593;28;20396;-81
2023/07/10 01:37:30;;;;;;;6.95;4.10;;;18.00;99.90;;;;;;5117176;28;20038;-80
2023/07/10 01:39:56;;;;;;;6.30;4.13;;;18.00;99.90;;;;;;5082063;28;20110;-81
2023/07/10 01:42:22;;;;;;;5.90;4.10;;;18.10;99.90;;;;;;5116588;28;20097;-81
2023/07/10 01:44:49;;;;;;;9.50;4.35;;;18.10;99.90;;;;;;5117270;28;20072;-80
2023/07/10 01:47:16;;;;;;;7.15;3.90;;;18.00;99.90;;;;;;5081898;28;20059;-81
2023/07/10 01:49:41;;;;;;;6.25;4.35;;;17.90;99.90;;;;;;5116441;28;20489;-80
2023/07/10 01:52:09;;;;;;;5.40;3.47;;;17.90;99.90;;;;;;5116866;28;20028;-81
2023/07/10 01:54:35;;;;;;;6.30;3.63;;;17.80;99.90;;;;;;5116782;28;20501;-80
2023/07/10 01:57:02;;;;;;;6.05;4.10;;;17.70;99.90;;;;;;5069180;28;20032;-81
2023/07/10 01:59:28;;;;;;;5.75;3.83;;;17.70;99.90;;;;;;5096495;28;20059;-82
2023/07/10 02:01:55;;;;;;;7.78;4.63;;;17.60;99.90;;;;;;5096394;28;20474;-80
2023/07/10 02:04:22;;;;;;;7.70;4.45;;;17.60;99.90;;;;;;5105326;28;20043;-81
2023/07/10 02:06:48;;;;;;;8.15;4.57;;;17.40;99.90;;;;;;5116683;28;20027;-80
2023/07/10 02:09:14;;;;;;;5.72;4.03;;;17.20;99.90;;;;;;5095624;28;20024;-80
2023/07/10 02:11:40;;;;;;;9.48;4.22;;;17.00;99.90;;;;;;5082840;28;20391;-82
2023/07/10 02:14:08;;;;;;;9.05;5.00;;;16.80;99.90;;;;;;5116471;28;20023;-81
2023/07/10 02:16:34;;;;;;;6.45;4.20;;;16.80;99.90;;;;;;5116601;28;20016;-80
2023/07/10 02:19:00;;;;;;;7.10;4.40;;;16.80;99.90;;;;;;5115839;28;20077;-81
2023/07/10 02:21:27;;;;;;;7.70;4.50;;;16.90;99.90;;;;;;5097870;28;20554;-81
2023/07/10 02:23:52;;;;;;;4.85;3.92;;;16.90;99.90;;;;;;5097246;28;20046;-80
2023/07/10 02:26:18;;;;;;;7.47;4.47;;;16.90;99.90;;;;;;5098168;28;20036;-81
2023/07/10 02:28:45;;;;;;;6.60;4.20;;;16.90;99.90;;;;;;5115546;28;20072;-80
2023/07/10 02:31:11;;;;;;;6.32;4.38;;;16.90;99.90;;;;;;5081590;28;20043;-82
2023/07/10 02:33:37;;;;;;;10.02;5.35;;;16.90;99.90;;;;;;5097288;28;20030;-82
2023/07/10 02:36:03;;;;;;;7.60;5.13;;;16.90;99.90;;;;;;5080436;28;20397;-82
2023/07/10 02:38:29;;;;;;;8.98;4.72;;;16.90;99.90;;;;;;5096945;28;20020;-82
2023/07/10 02:40:55;;;;;;;8.20;4.90;;;16.90;99.90;;;;;;5115335;28;20031;-82
2023/07/10 02:43:21;;;;;;;8.27;4.95;;;16.90;99.90;;;;;;5096996;28;20043;-82
2023/07/10 02:45:47;;;;;;;7.78;5.10;;;17.00;99.90;;;;;;5114893;28;20076;-82
2023/07/10 02:48:12;;;;;;;8.48;5.05;;;17.00;99.90;;;;;;5096991;28;20023;-82
2023/07/10 02:50:38;;;;;;;6.70;4.80;;;17.00;99.90;;;;;;5114929;28;20388;-82
2023/07/10 02:53:04;;;;;;;7.28;4.10;;;17.00;99.90;;;;;;5080408;28;20435;-82
2023/07/10 02:55:29;;;;;;;6.60;3.97;;;17.00;99.90;;;;;;5097160;28;20123;-83
2023/07/10 02:57:55;;;;;;;9.98;5.20;;;17.10;99.90;;;;;;5115054;28;20031;-82
2023/07/10 03:00:21;;;;;;;6.63;4.53;;;17.00;99.90;;;;;;5097859;28;20023;-83
2023/07/10 03:02:47;;;;;;;8.27;4.70;;;17.00;99.90;;;;;;5081004;28;20077;-83
2023/07/10 03:05:12;;;;;;;6.00;4.00;;;17.00;99.90;;;;;;5079756;28;20020;-82
2023/07/10 03:07:38;;;;;;;6.50;3.90;;;17.00;99.90;;;;;;5095590;28;20148;-82
2023/07/10 03:10:04;;;;;;;6.50;3.95;;;17.00;99.90;;;;;;5113417;28;20027;-81
2023/07/10 03:12:30;;;;;;;8.38;4.13;;;17.00;99.90;;;;;;5105734;28;20036;-82
2023/07/10 03:14:56;;;;;;;8.05;4.25;;;17.00;99.90;;;;;;5070537;28;20370;-82
2023/07/10 03:17:22;;;;;;;6.93;3.53;;;16.90;99.90;;;;;;5093474;28;20099;-82
2023/07/10 03:19:49;;;;;;;7.25;3.92;;;16.80;99.90;;;;;;5092448;28;20116;-82
2023/07/10 03:22:15;;;;;;;7.35;4.13;;;16.80;99.90;;;;;;5075734;28;20066;-82
2023/07/10 03:24:41;;;;;;;7.10;4.35;;;16.70;99.90;;;;;;5059031;28;20067;-82
2023/07/10 03:27:06;;;;;;;7.32;4.32;;;16.60;99.90;;;;;;5075008;28;20085;-81
2023/07/10 03:29:32;;;;;;;6.50;4.22;;;16.50;99.90;;;;;;5078187;28;20030;-82
2023/07/10 03:31:58;;;;;;;6.68;4.30;;;16.50;99.90;;;;;;5078771;28;20031;-82
2023/07/10 03:34:23;;;;;;;5.22;3.45;;;16.50;99.90;;;;;;5078731;28;20551;-82
2023/07/10 03:36:50;;;;;;;5.75;3.95;;;16.50;99.90;;;;;;5095654;28;20370;-82
2023/07/10 03:39:16;;;;;;;7.40;4.05;;;16.50;99.90;;;;;;5113830;28;20030;-82
2023/07/10 03:41:42;;;;;;;6.50;4.20;;;16.50;99.90;;;;;;5076990;28;20040;-82
2023/07/10 03:44:10;;;;;;;6.05;3.80;;;16.60;99.90;;;;;;5095746;28;20027;-82
2023/07/10 03:46:36;;;;;;;5.32;3.92;;;16.60;99.90;;;;;;5095659;28;20031;-82
2023/07/10 03:49:02;;;;;;;8.38;4.60;;;16.50;99.90;;;;;;5114173;28;20111;-82
2023/07/10 03:51:27;;;;;;;6.93;4.13;;;16.40;99.90;;;;;;5094941;28;20139;-81
2023/07/10 03:53:53;;;;;;;6.38;4.20;;;16.20;99.90;;;;;;5112107;28;20016;-82
2023/07/10 03:56:19;;;;;;;7.22;4.68;;;16.20;99.90;;;;;;5094720;28;20024;-82
2023/07/10 03:58:45;;;;;;;8.95;4.45;;;16.10;99.90;;;;;;5075589;28;20512;-82
2023/07/10 04:01:11;;;;;;;5.15;3.60;;;16.20;99.90;;;;;;5093630;28;20438;-82
2023/07/10 04:03:39;;;;;;;6.63;4.10;;;16.20;99.90;;;;;;5094079;28;20532;-82
2023/07/10 04:06:06;;;;;;;5.93;3.78;;;16.20;99.90;;;;;;5075800;28;20054;-82
2023/07/10 04:08:34;;;;;;;6.18;4.00;;;16.20;99.90;;;;;;5072025;28;20032;-82
2023/07/10 04:11:06;;;;;;;7.38;4.25;;;16.30;99.90;;;;;;5095528;28;20023;-82
2023/07/10 04:13:32;;;;;;;7.45;4.53;;;16.30;99.90;;;;;;5078022;28;20026;-82
2023/07/10 04:16:02;;;;;;;7.93;4.43;;;16.30;99.90;;;;;;5098970;28;20042;-82
2023/07/10 04:18:31;;;;;;;7.57;4.60;;;16.30;99.90;;;;;;5117742;28;20480;-82
2023/07/10 04:20:58;;;;;;;6.57;4.53;;;16.30;99.90;;;;;;5099453;28;20062;-82
2023/07/10 04:23:24;;;;;;;8.82;5.10;;;16.30;99.90;;;;;;5077327;28;20032;-82
2023/07/10 04:25:49;;;;;;;8.75;4.88;;;16.30;99.90;;;;;;5097206;28;20048;-82
2023/07/10 04:28:15;;;;;;;7.00;3.70;;;16.30;99.90;;;;;;5096882;28;20035;-82
2023/07/10 04:30:41;;;;;;;6.53;4.20;;;16.30;99.90;;;;;;5072244;28;20042;-82
2023/07/10 04:33:09;;;;;;;7.60;4.53;;;16.30;99.90;;;;;;5090704;28;20389;-82
2023/07/10 04:35:35;;;;;;;5.82;4.18;;;16.20;99.90;;;;;;5079157;28;20074;-83
2023/07/10 04:38:00;;;;;;;6.88;4.22;;;16.20;99.90;;;;;;5080684;28;20032;-82
2023/07/10 04:40:26;;;;;;;7.95;5.10;;;16.20;99.90;;;;;;5065504;28;20031;-82
2023/07/10 04:42:53;;;;;;;8.48;5.07;;;16.20;99.90;;;;;;5081482;28;20066;-82
2023/07/10 04:45:19;;;;;;;7.25;4.93;;;16.20;99.90;;;;;;5099296;28;20384;-82
2023/07/10 04:47:44;;;;;;;8.13;5.00;;;16.30;99.90;;;;;;5110555;28;20016;-82
2023/07/10 04:50:10;;;;;;;9.98;4.70;;;16.30;99.90;;;;;;5079679;28;20102;-82
2023/07/10 04:52:36;;;;;;;8.85;5.13;;;16.40;99.90;;;;;;5078817;28;20028;-82
2023/07/10 04:55:02;;;;;;;8.00;4.68;;;16.40;99.90;;;;;;5098013;28;20025;-82
2023/07/10 04:57:28;;;;;;;9.02;5.45;;;16.50;99.90;;;;;;5090861;28;20023;-82
2023/07/10 04:59:54;;;;;;;7.95;5.30;;;16.60;99.90;;;;;;5099330;28;20564;-82
2023/07/10 05:02:19;;;;;;;7.10;4.72;;;16.70;99.90;;;;;;5103727;28;20040;-83
2023/07/10 05:04:45;;;;;;;9.15;5.30;;;16.70;99.90;;;;;;5078709;28;20085;-82
2023/07/10 05:07:11;;;;;;;8.88;5.50;;;16.80;99.90;;;;;;5078988;28;20489;-82
2023/07/10 05:09:37;;;;;;;6.15;4.40;;;16.80;99.90;;;;;;5079116;28;20496;-82
2023/07/10 05:12:03;;;;;;;10.63;5.80;;;16.80;99.90;;;;;;5070327;28;20122;-82
2023/07/10 05:14:29;;;;;;;8.85;5.43;;;16.90;99.90;;;;;;5098509;28;20042;-83
2023/07/10 05:16:55;;;;;;;7.47;5.15;;;16.90;99.90;;;;;;5098593;28;20020;-83
2023/07/10 05:19:21;;;;;;;9.23;5.30;;;17.00;99.90;;;;;;5098748;28;20040;-82
2023/07/10 05:21:47;;;;;;;12.18;5.72;;;17.10;99.90;;;;;;5098617;28;20028;-83
2023/07/10 05:24:13;;;;;;;10.18;5.97;;;17.10;99.90;;;;;;5098348;28;20085;-83
2023/07/10 05:26:38;;;;;;;10.27;6.03;;;17.20;99.90;;;;;;5098079;28;20028;-83
2023/07/10 05:29:04;;;;;;;11.68;6.28;;;17.30;99.90;;;;;;5077848;28;20124;-82
2023/07/10 05:31:30;;;;;;;9.43;6.28;;;17.40;99.90;;;;;;5096245;28;20063;-83
2023/07/10 05:33:55;;;;;;;10.95;5.63;;;17.50;99.90;;;;;;5096489;28;20367;-82
2023/07/10 05:36:21;;;;;;;11.60;6.72;;;17.60;99.90;;;;;;5077754;28;20486;-82
2023/07/10 05:38:48;;;;;;;11.27;7.35;;;17.50;99.90;;;;;;5096195;28;20434;-82
2023/07/10 05:41:19;;;;;;;11.85;8.48;;;17.60;99.90;;;;;;5098355;28;20024;-83
2023/07/10 05:43:44;;;;;;;12.55;8.20;;;17.70;99.90;;;;;;5081530;28;20031;-82
2023/07/10 05:46:11;;;;;;;13.85;9.25;;;17.70;99.90;;;;;;5080633;28;20032;-82
2023/07/10 05:48:37;;;;;;;13.65;8.75;;;17.80;99.90;;;;;;5097393;28;20070;-83
2023/07/10 05:51:03;;;;;;;12.52;8.35;;;17.80;99.90;;;;;;5098244;28;20082;-82
2023/07/10 05:53:29;;;;;;;13.38;8.90;;;17.80;99.90;;;;;;5116904;28;20015;-82
2023/07/10 05:55:57;;;;;;;12.63;8.43;;;17.90;99.90;;;;;;5097470;28;20027;-82
2023/07/10 05:58:25;;;;;;;13.75;8.98;;;18.00;99.90;;;;;;5078485;28;20035;-82
2023/07/10 06:00:54;;;;;;;14.60;9.10;;;18.00;99.90;;;;;;5096347;28;20105;-82
2023/07/10 06:03:20;;;;;;;13.25;8.10;;;18.10;99.90;;;;;;5081392;28;20023;-82
2023/07/10 06:05:58;;;;;;;11.10;8.15;;;18.20;99.90;;;;;;5078674;28;20030;-82
2023/07/10 06:08:25;;;;;;;13.02;7.57;;;18.20;99.90;;;;;;5096736;28;20024;-82
2023/07/10 06:10:51;;;;;;;10.73;6.50;;;18.30;99.90;;;;;;5078826;28;20503;-82
2023/07/10 06:13:17;;;;;;;13.93;7.35;;;18.40;99.90;;;;;;5115708;28;20018;-82
2023/07/10 06:15:45;;;;;;;12.60;6.65;;;18.50;99.90;;;;;;5098862;28;20477;-82
2023/07/10 06:18:11;;;;;;;11.25;6.90;;;18.60;99.90;;;;;;5099633;28;20016;-82
2023/07/10 06:20:36;;;;;;;9.95;6.18;;;18.70;99.90;;;;;;5100090;28;21080;-82
2023/07/10 06:23:02;;;;;;;8.68;5.95;;;18.80;99.90;;;;;;5101034;28;20023;-82
2023/07/10 06:25:28;;;;;;;10.88;5.55;;;18.90;99.90;;;;;;5080421;28;20035;-83
2023/07/10 06:27:53;;;;;;;8.82;5.22;;;19.10;99.90;;;;;;5080241;28;20035;-82
2023/07/10 06:30:19;;;;;;;8.35;6.03;;;19.20;99.90;;;;;;5077684;28;20059;-83
2023/07/10 06:32:45;;;;;;;10.07;6.00;;;19.30;99.90;;;;;;5102700;28;20032;-82
2023/07/10 06:35:13;;;;;;;9.65;6.05;;;19.40;99.90;;;;;;5068552;28;20028;-82
2023/07/10 06:37:40;;;;;;;8.10;5.32;;;19.60;99.90;;;;;;5081955;28;20026;-82
2023/07/10 06:40:12;;;;;;;9.02;5.55;;;19.80;99.90;;;;;;5101775;28;20508;-82
2023/07/10 06:42:39;;;;;;;9.35;6.53;;;19.80;99.90;;;;;;5101789;28;20088;-81
2023/07/10 06:45:05;;;;;;;8.77;5.90;;;20.00;99.90;;;;;;5099110;28;20024;-82
2023/07/10 06:47:32;;;;;;;10.30;6.70;;;20.00;99.90;;;;;;5083221;28;20031;-82
2023/07/10 06:49:59;;;;;;;12.50;6.95;;;20.10;99.90;;;;;;5117468;28;20492;-82
2023/07/10 06:52:25;;;;;;;12.00;6.50;;;20.20;99.90;;;;;;5097861;28;20110;-82
2023/07/10 06:54:52;;;;;;;11.05;6.50;;;20.20;99.90;;;;;;5097286;28;20031;-82
2023/07/10 06:57:19;;;;;;;11.10;6.15;;;20.30;99.90;;;;;;5080439;28;20157;-82
2023/07/10 06:59:45;;;;;;;8.45;6.30;;;20.40;99.90;;;;;;5114829;28;20039;-82
2023/07/10 07:02:13;;;;;;;7.53;5.70;;;20.50;99.90;;;;;;5094995;28;20489;-82
2023/07/10 07:04:40;;;;;;;8.70;6.20;;;20.70;99.90;;;;;;5115154;28;20431;-82
2023/07/10 07:07:07;;;;;;;9.35;6.65;;;20.80;99.90;;;;;;5096570;28;20511;-82
2023/07/10 07:09:33;;;;;;;8.32;5.68;;;20.80;99.90;;;;;;5109532;28;20080;-82
2023/07/10 07:11:58;;;;;;;8.52;5.68;;;20.90;99.90;;;;;;5064526;28;20485;-82
2023/07/10 07:14:25;;;;;;;9.10;6.18;;;21.10;99.90;;;;;;5076498;28;20119;-82
2023/07/10 07:16:50;;;;;;;10.00;6.38;;;21.20;99.90;;;;;;5076960;28;20030;-83
2023/07/10 07:19:16;;;;;;;8.80;6.60;;;21.30;99.90;;;;;;5076527;28;20032;-82
2023/07/10 07:21:42;;;;;;;10.05;5.93;;;21.30;99.90;;;;;;5061015;28;20032;-82
2023/07/10 07:24:08;;;;;;;9.80;6.25;;;21.40;99.90;;;;;;5095612;28;20062;-83
2023/07/10 07:26:34;;;;;;;9.90;6.00;;;21.50;99.90;;;;;;5096731;28;20028;-82
2023/07/10 07:29:00;;;;;;;10.43;6.28;;;21.50;99.90;;;;;;5114387;28;20038;-81
2023/07/10 07:31:25;;;;;;;9.32;5.63;;;21.60;99.90;;;;;;5077873;28;20036;-82
2023/07/10 07:33:51;;;;;;;8.48;5.78;;;21.70;99.90;;;;;;5105328;28;20091;-83
2023/07/10 07:36:17;;;;;;;7.65;5.45;;;21.80;99.90;;;;;;5114864;28;20546;-82
2023/07/10 07:38:42;;;;;;;9.05;5.88;;;21.80;99.90;;;;;;5114810;28;20020;-82
2023/07/10 07:41:08;;;;;;;7.80;5.38;;;21.90;99.90;;;;;;5114414;28;20104;-82
2023/07/10 07:43:34;;;;;;;7.82;5.65;;;22.00;99.90;;;;;;5079508;28;20053;-82
2023/07/10 07:45:59;;;;;;;8.27;5.30;;;22.10;99.90;;;;;;5096196;28;20050;-83
2023/07/10 07:48:26;;;;;;;7.57;5.25;;;22.20;99.90;;;;;;5080945;28;20053;-82
2023/07/10 07:51:04;;;;;;;7.10;4.47;;;22.30;99.90;;;;;;5083489;28;20101;-82
2023/07/10 07:53:35;;;;;;;6.88;4.53;;;22.50;99.90;;;;;;5100219;28;20073;-82
2023/07/10 07:56:01;;;;;;;8.68;4.30;;;22.60;99.90;;;;;;5100444;28;20095;-83
2023/07/10 07:58:28;;;;;;;6.15;4.28;;;22.70;99.90;;;;;;5118303;28;20055;-82
2023/07/10 08:00:54;;;;;;;8.32;4.53;;;22.90;99.90;;;;;;5112000;28;20028;-82
2023/07/10 08:03:20;;;;;;;10.02;4.70;;;23.00;99.90;;;;;;5111731;28;20528;-83
2023/07/10 08:05:46;;;;;;;7.75;4.57;;;23.10;99.90;;;;;;5100063;28;20023;-83
2023/07/10 08:08:12;;;;;;;11.27;5.55;;;23.20;99.90;;;;;;5081758;28;20536;-83
2023/07/10 08:10:41;;;;;;;8.45;5.97;;;23.40;99.90;;;;;;5099909;28;20023;-82
2023/07/10 08:13:09;;;;;;;9.02;5.57;;;23.50;99.90;;;;;;5104072;28;20115;-83
2023/07/10 08:15:35;;;;;;;8.10;5.80;;;23.70;99.90;;;;;;5098286;28;20051;-83
2023/07/10 08:18:00;;;;;;;9.15;5.38;;;23.90;99.90;;;;;;5086667;28;20031;-83
2023/07/10 08:20:26;;;;;;;9.45;6.00;;;24.10;99.90;;;;;;5118795;28;20422;-82
2023/07/10 08:22:52;;;;;;;7.40;4.75;;;24.30;99.90;;;;;;5118260;28;20022;-83
2023/07/10 08:25:17;;;;;;;6.60;4.60;;;24.50;99.90;;;;;;5082712;28;20031;-83
2023/07/10 08:27:45;;;;;;;7.63;5.40;;;24.50;99.90;;;;;;5082935;28;20061;-83
2023/07/10 08:30:12;;;;;;;6.38;4.50;;;24.60;99.90;;;;;;5099949;28;20484;-82
2023/07/10 08:32:37;;;;;;;6.78;4.65;;;24.70;99.90;;;;;;5119320;28;20472;-81
2023/07/10 08:35:04;;;;;;;6.60;4.80;;;24.70;99.90;;;;;;5100395;28;20027;-81
2023/07/10 08:37:29;;;;;;;7.05;5.05;;;24.80;99.90;;;;;;5101065;28;20024;-81
2023/07/10 08:39:55;;;;;;;;;;;24.90;99.90;;;;;;5100614;28;20054;-81
2023/07/10 08:42:22;;;;;;;;;;;24.90;99.80;;;;;;5076976;28;20422;-81
2023/07/10 08:44:49;;;;;;;;;;;25.00;99.60;;;;;;5112560;28;19908;-81
2023/07/10 08:47:17;;;;;;;;;;;25.10;99.70;;;;;;5100564;28;20331;-81
2023/07/10 08:49:53;;;;;;;;;;;25.20;98.90;;;;;;5099985;28;20006;-81
2023/07/10 08:52:26;;;;;;;;;;;25.30;98.60;;;;;;5113479;28;19919;-82
2023/07/10 08:54:51;;;;;;;;;;;25.40;99.00;;;;;;5118507;28;19910;-82
2023/07/10 08:57:29;;;;;;;;;;;25.50;98.30;;;;;;5118269;28;19904;-81
2023/07/10 08:59:58;;;;;;;;;;;25.60;98.20;;;;;;5116870;28;19903;-81
2023/07/10 09:02:27;;;;;;;;;;;25.80;97.90;;;;;;5099856;28;20343;-81
2023/07/10 09:04:52;;;;;;;;;;;26.00;97.70;;;;;;5118365;28;20291;-81
2023/07/10 09:07:19;;;;;;;;;;;26.10;97.20;;;;;;5082651;28;19998;-81
2023/07/10 09:09:47;;;;;;;;;;;26.10;96.50;;;;;;5116494;28;19904;-81
2023/07/10 09:12:17;;;;;;;;;;;26.20;96.70;;;;;;5099915;28;19907;-81
2023/07/10 09:14:58;;;;;;;;;;;26.20;97.00;;;;;;5117554;28;19921;-81
2023/07/10 09:17:23;;;;;;;;;;;26.40;96.90;;;;;;5099256;28;19903;-81
2023/07/10 09:19:52;;;;;;;;;;;26.50;96.30;;;;;;5118682;28;19910;-81
2023/07/10 09:22:17;;;;;;;;;;;26.60;96.40;;;;;;5117300;28;19904;-81
2023/07/10 09:24:43;;;;;;;;;;;26.80;95.00;;;;;;5117574;28;19915;-81
2023/07/10 09:27:12;;;;;;;;;;;26.90;93.50;;;;;;5096879;28;19955;-81
2023/07/10 09:29:38;;;;;;;;;;;27.00;92.70;;;;;;5105923;28;20063;-81
2023/07/10 09:32:12;;;;;;;;;;;27.10;93.80;;;;;;5115309;28;19915;-81
2023/07/10 09:34:58;;;;;;;;;;;27.10;93.20;;;;;;5098556;28;19915;-81
2023/07/10 09:37:30;;;;;;;;;;;27.20;92.80;;;;;;5117299;28;19942;-81
2023/07/10 09:39:55;;;;;;;;;;;27.30;92.80;;;;;;5117512;28;19986;-81
2023/07/10 09:42:29;;;;;;;;;;;27.40;93.30;;;;;;5117308;28;20024;-81
2023/07/10 09:44:55;;;;;;;;;;;27.50;92.30;;;;;;5117249;28;19915;-81
2023/07/10 09:47:22;;;;;;;;;;;27.50;91.90;;;;;;5095849;28;19962;-81
2023/07/10 09:49:54;;;;;;;;;;;27.50;92.10;;;;;;5115579;28;19960;-81
2023/07/10 09:52:29;;;;;;;;;;;27.50;92.80;;;;;;5116896;28;20364;-81
2023/07/10 09:54:59;;;;;;;;;;;27.60;93.30;;;;;;5116947;28;19903;-81
2023/07/10 09:57:24;;;;;;;;;;;27.60;93.40;;;;;;5117118;28;19949;-81
2023/07/10 09:59:59;;;;;;;;;;;27.50;92.10;;;;;;5116389;28;19908;-81
2023/07/10 10:02:40;;;;;;;;;;;27.50;93.70;;;;;;5098489;28;19939;-81
2023/07/10 10:05:12;;;;;;;;;;;27.50;93.20;;;;;;5098022;28;19998;-81
2023/07/10 10:07:39;;;;;;;;;;;27.50;94.00;;;;;;5078534;28;19908;-81
2023/07/10 10:10:31;;;;;;;;;;;27.50;94.80;;;;;;5096927;28;20246;-82
2023/07/10 10:13:03;;;;;;;;;;;27.60;95.00;;;;;;5111749;28;19998;-81
2023/07/10 10:15:49;;;;;;;;;;;27.70;95.40;;;;;;5115473;28;19962;-81
2023/07/10 10:18:34;;;;;;;;;;;27.60;94.10;;;;;;5115837;28;20441;-81
2023/07/10 10:21:01;;;;;;;;;;;27.60;94.00;;;;;;5096402;28;20300;-82
2023/07/10 10:23:31;;;;;;;;;;;27.50;93.90;;;;;;5095305;28;19911;-81
2023/07/10 10:26:06;;;;;;;;;;;27.50;92.50;;;;;;5108988;28;19974;-82
2023/07/10 10:28:37;;;;;;;;;;;27.40;91.60;;;;;;5086523;28;19915;-81
2023/07/10 10:31:06;;;;;;;;;;;27.30;91.10;;;;;;5089404;28;19918;-82
2023/07/10 10:34:04;;;;;;;;;;;27.20;89.70;;;;;;5095208;28;19904;-81
2023/07/10 10:36:32;;;;;;;;;;;27.20;91.00;;;;;;5060213;28;20256;-81
2023/07/10 10:39:03;;;;;;;;;;;27.00;91.60;;;;;;5095316;28;19914;-81
2023/07/10 10:41:52;;;;;;;;;;;27.00;92.20;;;;;;5099217;28;19912;-81
2023/07/10 10:44:33;;;;;;;;;;;27.00;89.90;;;;;;5116061;28;19912;-81
2023/07/10 10:47:01;;;;;;;;;;;26.80;86.90;;;;;;5116124;28;20394;-81
2023/07/10 10:49:45;;;;;;;;;;;26.70;87.30;;;;;;5116136;28;19952;-81
2023/07/10 10:52:20;;;;;;;;;;;26.70;88.00;;;;;;5097682;28;20435;-81
2023/07/10 10:54:58;;;;;;;;;;;26.70;89.60;;;;;;5115784;28;19910;-81
2023/07/10 10:57:24;;;;;;;;;;;26.70;88.50;;;;;;5115624;28;19904;-81
2023/07/10 10:59:58;;;;;;;;;;;26.70;88.70;;;;;;5115225;28;19957;-81
2023/07/10 11:02:36;;;;;;;;;;;26.90;89.60;;;;;;5097125;28;20004;-81
2023/07/10 11:05:15;;;;;;;;;;;27.00;90.00;;;;;;5105449;28;20435;-81
2023/07/10 11:07:42;;;;;;;;;;;27.10;89.80;;;;;;5109136;28;19915;-81
2023/07/10 11:10:12;;;;;;;;;;;27.20;90.20;;;;;;5115335;28;20357;-81
2023/07/10 11:12:38;;;;;;;;;;;27.10;90.10;;;;;;5115970;28;20357;-81
2023/07/10 11:15:13;;;;;;;;;;;27.30;90.70;;;;;;5098121;28;20006;-81
2023/07/10 11:17:38;;;;;;;;;;;27.50;88.80;;;;;;5114872;28;19951;-81
2023/07/10 11:20:04;;;;;;;;;;;27.70;86.80;;;;;;5114640;28;19911;-81
2023/07/10 11:22:35;;;;;;;;;;;27.80;85.50;;;;;;5115216;28;19918;-81
2023/07/10 11:25:02;;;;;;;;;;;28.00;85.20;;;;;;5115813;28;19908;-81
2023/07/10 11:27:30;;;;;;;;;;;28.20;84.60;;;;;;5117566;28;19950;-81
2023/07/10 11:29:57;;;;;;;;;;;28.30;84.20;;;;;;5118458;28;20376;-81
2023/07/10 11:32:24;;;;;;;;;;;28.50;83.50;;;;;;5119435;28;19907;-82
2023/07/10 11:34:53;;;;;;;;;;;28.70;83.10;;;;;;5119703;28;20380;-81
2023/07/10 11:37:35;;;;;;;;;;;28.70;83.70;;;;;;5119201;28;20302;-82
2023/07/10 11:40:21;;;;;;;;;;;28.80;82.40;;;;;;5118253;28;19947;-82
2023/07/10 11:42:47;;;;;;;;;;;28.80;81.40;;;;;;5104607;28;19964;-81
2023/07/10 11:45:12;;;;;;;;;;;28.90;79.70;;;;;;5115603;28;19912;-80
2023/07/10 11:47:41;;;;;;;;;;;28.80;80.30;;;;;;5069699;28;19908;-81
2023/07/10 11:50:13;;;;;;;;;;;28.70;78.30;;;;;;5111468;28;19919;-81
2023/07/10 11:52:40;;;;;;;;;;;28.80;80.80;;;;;;5118180;28;19911;-81
2023/07/10 11:55:13;;;;;;;;;;;29.10;80.90;;;;;;5101296;28;19947;-82
2023/07/10 11:57:38;;;;;;;;;;;29.30;80.50;;;;;;5097527;28;19904;-81
2023/07/10 12:00:06;;;;;;;;;;;29.50;78.60;;;;;;5085716;28;19904;-82
2023/07/10 12:02:35;;;;;;;;;;;29.60;77.80;;;;;;5118054;28;19908;-81
2023/07/10 12:05:03;;;;;;;;;;;29.70;77.20;;;;;;5098300;28;19955;-81
2023/07/10 12:07:28;;;;;;;;;;;29.70;76.50;;;;;;5091057;28;19907;-81
2023/07/10 12:09:58;;;;;;;;;;;29.80;75.50;;;;;;5119764;28;19903;-81
2023/07/10 12:12:28;;;;;;;;;;;29.80;71.90;;;;;;5119342;28;19969;-81
2023/07/10 12:14:53;;;;;;;;;;;29.80;73.10;;;;;;5119025;28;19925;-82
2023/07/10 12:17:19;;;;;;;;;;;29.80;74.40;;;;;;5116716;28;19908;-82
2023/07/10 12:19:45;;;;;;;;;;;30.00;74.80;;;;;;5117650;28;19911;-82
2023/07/10 12:22:21;;;;;;;;;;;30.10;76.20;;;;;;5117467;28;19912;-82
2023/07/10 12:24:51;;;;;;;;;;;30.20;73.80;;;;;;5099786;28;20004;-81
2023/07/10 12:27:18;;;;;;;;;;;30.30;76.20;;;;;;5119594;28;20022;-81
2023/07/10 12:30:03;;;;;;;;;;;30.40;73.30;;;;;;5118454;28;19911;-82
2023/07/10 12:32:33;;;;;;;;;;;30.50;75.20;;;;;;5119950;28;19908;-81
2023/07/10 12:35:00;;;;;;;;;;;30.50;76.10;;;;;;5121949;28;19933;-82
2023/07/10 12:37:26;;;;;;;;;;;30.70;75.90;;;;;;5109458;28;19915;-81
2023/07/10 12:39:52;;;;;;;;;;;30.90;72.30;;;;;;5102648;28;19912;-81
2023/07/10 12:42:34;;;;;;;;;;;30.90;69.90;;;;;;5103797;27;19923;-81
2023/07/10 12:45:25;;;;;;;;;;;31.00;67.50;;;;;;5107649;28;19911;-80
2023/07/10 12:47:56;;;;;;;;;;;31.20;69.00;;;;;;5107465;28;20292;-81
2023/07/10 12:50:31;;;;;;;;;;;31.40;67.00;;;;;;5111982;28;19907;-81
2023/07/10 12:52:57;;;;;;;;;;;31.50;67.00;;;;;;5117128;28;19914;-81
2023/07/10 12:55:28;;;;;;;;;;;31.70;66.50;;;;;;5098237;28;19908;-81
2023/07/10 12:57:57;;;;;;;;;;;31.80;64.50;;;;;;5115950;28;19983;-81
2023/07/10 13:00:38;;;;;;;;;;;32.00;63.90;;;;;;5113693;28;19907;-81
2023/07/10 13:03:03;;;;;;;;;;;32.00;64.10;;;;;;5113875;28;19952;-81
2023/07/10 13:05:30;;;;;;;;;;;32.10;65.20;;;;;;5116365;28;20010;-81
2023/07/10 13:07:58;;;;;;;;;;;32.10;63.90;;;;;;5111956;28;19908;-81
2023/07/10 13:10:28;;;;;;;;;;;32.10;64.40;;;;;;5109938;28;20357;-81
2023/07/10 13:12:57;;;;;;;;;;;32.20;62.60;;;;;;5111206;28;19912;-81
2023/07/10 13:15:30;;;;;;;;;;;32.20;62.60;;;;;;5101042;28;19915;-81
2023/07/10 13:17:55;;;;;;;;;;;32.20;61.20;;;;;;5114993;28;20277;-81
2023/07/10 13:20:25;;;;;;;;;;;32.20;61.70;;;;;;5113364;28;19912;-81
2023/07/10 13:22:52;;;;;;;;;;;32.30;59.40;;;;;;5095623;28;19908;-80